Vancouver, British Columbia

2:36 PM PDT on September 18, 2014 (GMT -0700)
False Creek Fuels | Change Station
CLOSE
Current Station
Personal Weather Station
Location: Vancouver, BRITISH COLUMBIA
Elevation: 0 ft
Nearby Weather Stations
4.0 Earthquake: Seabeck, Washington (1 day ago)  

Elev 0 ft 49.28 °N, 123.14 °W | Updated 163 days ago

Rain
Rain
61 °F
Feels Like 61 °F
N
6
Wind Variable Wind from South
Gusts mph

Today
High -- | Low -- °F
--% Chance of Precip.
Yesterday
High -- | Low -- °F
Precip. -- in
6:53 AM 7:18 PM
Waning Crescent, 24% visible
Pressure 29.83 in
Visibility 15.0 miles
Clouds Few 800 ft
Scattered Clouds 4300 ft
Overcast 5300 ft
Dew Point 55 °F
Humidity 84%
Rainfall 0.27 in
Snow Depth Not available.
UV 2 out of 12
Pollen Not available.
Air Quality Not available.
Flu Activity Not available.
SPECI CYVR 182124Z 11008KT 15SM -RA FEW008 SCT043 OVC053 17/15 A2982 RMK CF1SC3SC4 PCPN VRY LGT SLP099 DENSITY ALT 300FT

More Conditions Fewer Conditions

Pressure 29.83 in
Visibility 15.0 miles
Clouds Few 800 ft
Scattered Clouds 4300 ft
Overcast 5300 ft
Dew Point 55 °F
Humidity 84%
Rainfall 0.27 in
Snow Depth Not available.
UV 2 out of 12
Pollen Not available.
Air Quality Not available.
Flu Activity Not available.
SPECI CYVR 182124Z 11008KT 15SM -RA FEW008 SCT043 OVC053 17/15 A2982 RMK CF1SC3SC4 PCPN VRY LGT SLP099 DENSITY ALT 300FT

More Conditions Fewer Conditions

10-Day Weather Forecast

Almanac

Astronomy

Sep. 18, 2014 Rise Set
Actual Time 6:53 AM PDT 7:18 PM PDT
Civil Twilight 6:21 AM PDT 7:50 PM PDT
Nautical Twilight 5:43 AM PDT 8:28 PM PDT
Astronomical Twilight 5:04 AM PDT 9:07 PM PDT
Moon 1:29 AM PDT 4:32 PM PDT
Length of Visible Light 13h 29m
Length of Day
12h 25m
Tomorrow will be 3m 36s shorter.
Waning Crescent, 24% of the Moon is Illuminated
Today
Waning Crescent
Sep 24
New
Oct 1
First Quarter
Oct 8
Full
Oct 15
Last Quarter

Today's Extremes

Country Highs Country Lows

Community

WunderPhotos

Upload Photos

1,754,452 photos uploaded!

WunderBlogs® & News

Nearby

Snow Depth

Not available.

Earthquake Activity

City Distance Mag. Time & Date
Seabeck, Washington 118 miles 4.0 3:06 AM PDT
2014-09-17
Minimum magnitude displayed is 2.5.

Coastal Water Temperatures

Place Temperature
No Stations Reporting

Nearby Weather Stations